createdAt,value
2017-10-22T00:00:26.936Z,13.00
2017-10-22T00:01:31.104Z,13.00
2017-10-22T00:02:35.273Z,13.00
2017-10-22T00:03:39.568Z,13.00
2017-10-22T00:04:44.624Z,13.00
2017-10-22T00:05:48.853Z,13.00
2017-10-22T00:06:53.058Z,13.00
2017-10-22T00:07:57.310Z,13.00
2017-10-22T00:09:01.674Z,13.00
2017-10-22T00:10:05.937Z,13.00
2017-10-22T00:11:10.953Z,13.00
2017-10-22T00:12:15.942Z,13.00
2017-10-22T00:13:20.245Z,13.00
2017-10-22T00:14:24.533Z,13.00
2017-10-22T00:15:28.794Z,13.10
2017-10-22T00:16:32.963Z,13.00
2017-10-22T00:17:37.445Z,13.00
2017-10-22T00:18:41.667Z,13.00
2017-10-22T00:19:45.911Z,13.10
2017-10-22T00:20:50.144Z,13.10
2017-10-22T00:21:55.162Z,13.00
2017-10-22T00:23:00.190Z,13.10
2017-10-22T00:24:05.157Z,13.10
2017-10-22T00:25:09.516Z,13.00
2017-10-22T00:26:18.273Z,13.10
2017-10-22T00:27:23.930Z,13.00
2017-10-22T00:28:29.234Z,13.00
2017-10-22T00:29:33.519Z,13.00
2017-10-22T00:30:37.793Z,13.00
2017-10-22T00:31:42.032Z,13.00
2017-10-22T00:32:46.289Z,13.00
2017-10-22T00:33:50.571Z,13.00
2017-10-22T00:34:54.883Z,13.00
2017-10-22T00:35:59.084Z,13.00
2017-10-22T00:37:03.329Z,13.00
2017-10-22T00:38:07.519Z,13.00
2017-10-22T00:39:11.984Z,13.00
2017-10-22T00:40:16.229Z,13.00
2017-10-22T00:41:20.477Z,13.00
2017-10-22T00:42:24.903Z,12.90
2017-10-22T00:43:29.133Z,12.90
2017-10-22T00:44:33.682Z,12.90
2017-10-22T00:45:38.699Z,12.90
2017-10-22T00:46:42.986Z,12.90
2017-10-22T00:47:47.310Z,12.90
2017-10-22T00:48:51.609Z,12.90
2017-10-22T00:49:55.861Z,12.90
2017-10-22T00:51:00.034Z,12.80
2017-10-22T00:52:04.283Z,12.80
2017-10-22T00:53:08.505Z,12.80
2017-10-22T00:54:12.747Z,12.80
2017-10-22T00:55:16.956Z,12.80
2017-10-22T00:56:21.940Z,12.80
2017-10-22T00:57:26.715Z,12.70
2017-10-22T00:58:31.730Z,12.70
2017-10-22T00:59:36.806Z,12.70
2017-10-22T01:00:41.249Z,12.70
2017-10-22T01:01:45.417Z,12.70
2017-10-22T01:02:49.646Z,12.70
2017-10-22T01:03:53.845Z,12.70
2017-10-22T01:04:58.047Z,12.70
2017-10-22T01:06:02.505Z,12.70
2017-10-22T01:07:07.466Z,12.60
2017-10-22T01:08:11.706Z,12.60
2017-10-22T01:09:15.987Z,12.60
2017-10-22T01:10:20.300Z,12.60
2017-10-22T01:11:24.700Z,12.60
2017-10-22T01:12:33.034Z,12.60
2017-10-22T01:13:37.385Z,12.60
2017-10-22T01:14:41.871Z,12.60
2017-10-22T01:15:46.906Z,12.50
2017-10-22T01:16:52.054Z,12.50
2017-10-22T01:17:56.328Z,12.50
2017-10-22T01:19:01.314Z,12.50
2017-10-22T01:20:05.631Z,12.50
2017-10-22T01:21:09.926Z,12.50
2017-10-22T01:22:14.445Z,12.40
2017-10-22T01:23:18.864Z,12.40
2017-10-22T01:24:23.225Z,12.40
2017-10-22T01:25:27.505Z,12.40
2017-10-22T01:26:32.726Z,12.40
2017-10-22T01:27:37.704Z,12.40
2017-10-22T01:28:41.990Z,12.40
2017-10-22T01:29:46.306Z,12.30
2017-10-22T01:30:50.658Z,12.30
2017-10-22T01:31:55.038Z,12.30
2017-10-22T01:32:59.671Z,12.30
2017-10-22T01:34:03.946Z,12.30
2017-10-22T01:35:08.290Z,12.30
2017-10-22T01:36:12.771Z,12.30
2017-10-22T01:37:17.034Z,12.30
2017-10-22T01:38:22.034Z,12.30
2017-10-22T01:39:26.328Z,12.20
2017-10-22T01:40:30.703Z,12.20
2017-10-22T01:41:35.035Z,12.20
2017-10-22T01:42:39.334Z,12.20
2017-10-22T01:43:43.645Z,12.20
2017-10-22T01:44:47.984Z,12.20
2017-10-22T01:45:53.124Z,12.10
2017-10-22T01:46:58.334Z,12.10
2017-10-22T01:48:02.594Z,12.10
2017-10-22T01:49:06.961Z,12.10
2017-10-22T01:50:12.078Z,12.10
2017-10-22T01:51:16.385Z,12.10
2017-10-22T01:52:21.495Z,12.10
2017-10-22T01:53:26.242Z,12.10
2017-10-22T01:54:31.298Z,12.10
2017-10-22T01:55:35.557Z,12.10
2017-10-22T01:56:42.104Z,12.10
2017-10-22T01:57:46.489Z,12.00
2017-10-22T01:58:50.866Z,12.00
2017-10-22T01:59:55.184Z,12.00
2017-10-22T02:00:59.486Z,12.00
2017-10-22T02:02:03.723Z,12.00
2017-10-22T02:03:07.912Z,12.00
2017-10-22T02:04:12.154Z,12.00
2017-10-22T02:05:16.367Z,12.00
2017-10-22T02:06:20.626Z,11.90
2017-10-22T02:07:24.891Z,11.90
2017-10-22T02:08:29.986Z,11.90
2017-10-22T02:09:34.271Z,11.90
2017-10-22T02:10:38.506Z,11.90
2017-10-22T02:11:43.403Z,11.90
2017-10-22T02:12:47.651Z,11.90
2017-10-22T02:13:51.913Z,11.80
2017-10-22T02:14:56.221Z,11.80
2017-10-22T02:16:00.466Z,11.80
2017-10-22T02:17:05.610Z,11.80
2017-10-22T02:18:10.650Z,11.80
2017-10-22T02:19:15.206Z,11.80
2017-10-22T02:20:19.427Z,11.70
2017-10-22T02:21:23.788Z,11.80
2017-10-22T02:22:27.984Z,11.70
2017-10-22T02:23:32.293Z,11.70
2017-10-22T02:24:36.663Z,11.70
2017-10-22T02:25:40.868Z,11.70
2017-10-22T02:26:45.118Z,11.70
2017-10-22T02:27:49.319Z,11.70
2017-10-22T02:28:53.708Z,11.70
2017-10-22T02:29:58.726Z,11.70
2017-10-22T02:31:03.823Z,11.70
2017-10-22T02:32:08.348Z,11.70
2017-10-22T02:33:12.617Z,11.70
2017-10-22T02:34:17.683Z,11.70
2017-10-22T02:35:21.990Z,11.70
2017-10-22T02:36:26.176Z,11.70
2017-10-22T02:37:30.391Z,11.70
2017-10-22T02:38:34.692Z,11.60
2017-10-22T02:39:38.913Z,11.60
2017-10-22T02:40:43.899Z,11.70
2017-10-22T02:41:48.388Z,11.60
2017-10-22T02:42:52.581Z,11.70
2017-10-22T02:43:56.769Z,11.60
2017-10-22T02:45:01.733Z,11.60
2017-10-22T02:46:05.982Z,11.60
2017-10-22T02:47:10.190Z,11.60
2017-10-22T02:48:15.205Z,11.60
2017-10-22T02:49:19.418Z,11.60
2017-10-22T02:50:24.433Z,11.60
2017-10-22T02:51:28.712Z,11.60
2017-10-22T02:52:32.932Z,11.70
2017-10-22T02:53:37.091Z,11.60
2017-10-22T02:54:41.298Z,11.60
2017-10-22T02:55:45.462Z,11.60
2017-10-22T02:56:49.684Z,11.60
2017-10-22T02:57:53.914Z,11.60
2017-10-22T02:58:58.087Z,11.60
2017-10-22T03:00:03.037Z,11.60
2017-10-22T03:01:07.342Z,11.60
2017-10-22T03:02:11.614Z,11.60
2017-10-22T03:03:16.583Z,11.60
2017-10-22T03:04:21.487Z,11.60
2017-10-22T03:05:25.866Z,11.60
2017-10-22T03:06:30.506Z,11.60
2017-10-22T03:07:34.712Z,11.70
2017-10-22T03:08:39.330Z,11.70
2017-10-22T03:09:43.819Z,11.70
2017-10-22T03:10:48.779Z,11.70
2017-10-22T03:11:53.076Z,11.70
2017-10-22T03:12:57.958Z,11.70
2017-10-22T03:14:02.355Z,11.70
2017-10-22T03:15:07.029Z,11.70
2017-10-22T03:16:11.399Z,11.70
2017-10-22T03:17:16.418Z,11.70
2017-10-22T03:18:21.415Z,11.80
2017-10-22T03:19:26.069Z,11.80
2017-10-22T03:20:31.001Z,11.80
2017-10-22T03:21:35.348Z,11.80
2017-10-22T03:22:39.701Z,11.80
2017-10-22T03:23:44.098Z,11.80
2017-10-22T03:24:48.294Z,11.80
2017-10-22T03:25:52.479Z,11.80
2017-10-22T03:26:56.662Z,11.80
2017-10-22T03:28:00.902Z,11.80
2017-10-22T03:29:05.182Z,11.80
2017-10-22T03:30:09.842Z,11.90
2017-10-22T03:31:14.855Z,11.90
2017-10-22T03:32:19.025Z,11.80
2017-10-22T03:33:23.241Z,11.80
2017-10-22T03:34:27.540Z,11.80
2017-10-22T03:35:32.264Z,11.80
2017-10-22T03:36:36.613Z,11.80
2017-10-22T03:37:41.605Z,11.90
2017-10-22T03:38:47.376Z,11.80
2017-10-22T03:39:52.378Z,11.90
2017-10-22T03:40:56.537Z,11.90
2017-10-22T03:42:00.987Z,11.90
2017-10-22T03:43:05.295Z,11.90
2017-10-22T03:44:09.484Z,11.90
2017-10-22T03:45:13.658Z,11.80
2017-10-22T03:46:17.845Z,11.90
2017-10-22T03:47:22.085Z,11.90
2017-10-22T03:48:26.253Z,11.90
2017-10-22T03:49:31.309Z,11.90
2017-10-22T03:50:35.486Z,11.90
2017-10-22T03:51:40.496Z,11.90
2017-10-22T03:52:45.501Z,11.90
2017-10-22T03:53:49.681Z,11.90
2017-10-22T03:54:53.942Z,11.90
2017-10-22T03:55:58.866Z,11.90
2017-10-22T03:57:04.060Z,11.90
2017-10-22T03:58:08.296Z,11.90
2017-10-22T03:59:12.515Z,11.90
2017-10-22T04:00:16.771Z,11.90
2017-10-22T04:01:20.945Z,11.90
2017-10-22T04:02:25.231Z,11.90
2017-10-22T04:03:29.374Z,11.90
2017-10-22T04:04:33.490Z,11.90
2017-10-22T04:05:37.795Z,11.90
2017-10-22T04:06:42.006Z,11.90
2017-10-22T04:07:46.198Z,11.90
2017-10-22T04:08:50.350Z,12.00
2017-10-22T04:09:54.559Z,12.00
2017-10-22T04:10:58.755Z,11.90
2017-10-22T04:12:02.949Z,11.90
2017-10-22T04:13:07.910Z,11.90
2017-10-22T04:14:12.150Z,11.90
2017-10-22T04:15:16.347Z,11.90
2017-10-22T04:16:20.509Z,11.90
2017-10-22T04:17:24.709Z,11.90
2017-10-22T04:18:28.970Z,11.80
2017-10-22T04:19:33.165Z,11.80
2017-10-22T04:20:37.351Z,11.80
2017-10-22T04:21:41.698Z,11.70
2017-10-22T04:22:45.891Z,11.70
2017-10-22T04:23:50.097Z,11.70
2017-10-22T04:24:58.291Z,11.60
2017-10-22T04:26:02.507Z,11.60
2017-10-22T04:27:16.202Z,11.60
2017-10-22T04:28:22.763Z,11.60
2017-10-22T04:29:26.911Z,11.60
2017-10-22T04:30:31.809Z,11.50
2017-10-22T04:31:36.013Z,11.50
2017-10-22T04:32:40.243Z,11.50
2017-10-22T04:33:45.215Z,11.40
2017-10-22T04:34:49.636Z,11.40
2017-10-22T04:35:53.813Z,11.30
2017-10-22T04:36:57.992Z,11.30
2017-10-22T04:38:02.964Z,11.30
2017-10-22T04:39:07.185Z,11.20
2017-10-22T04:40:11.328Z,11.20
2017-10-22T04:41:15.531Z,11.20
2017-10-22T04:42:20.709Z,11.10
2017-10-22T04:43:24.863Z,11.10
2017-10-22T04:44:29.019Z,11.10
2017-10-22T04:45:33.158Z,11.10
2017-10-22T04:46:38.090Z,11.00
2017-10-22T04:47:42.999Z,11.00
2017-10-22T04:48:47.940Z,11.00
2017-10-22T04:49:52.078Z,10.90
2017-10-22T04:50:56.224Z,10.90
2017-10-22T04:52:01.200Z,10.90
2017-10-22T04:53:05.636Z,10.90
2017-10-22T04:54:09.798Z,10.90
2017-10-22T04:55:13.970Z,10.80
2017-10-22T04:56:18.918Z,10.80
2017-10-22T04:57:23.366Z,10.80
2017-10-22T04:58:27.499Z,10.80
2017-10-22T04:59:32.448Z,10.80
2017-10-22T05:00:36.664Z,10.70
2017-10-22T05:01:40.842Z,10.70
2017-10-22T05:02:45.805Z,10.70
2017-10-22T05:03:49.954Z,10.70
2017-10-22T05:04:54.111Z,10.70
2017-10-22T05:05:58.294Z,10.60
2017-10-22T05:07:02.562Z,10.60
2017-10-22T05:08:06.915Z,10.60
2017-10-22T05:09:11.084Z,10.60
2017-10-22T05:10:16.208Z,10.50
2017-10-22T05:11:21.129Z,10.50
2017-10-22T05:12:25.298Z,10.50
2017-10-22T05:13:29.417Z,10.50
2017-10-22T05:14:33.953Z,10.50
2017-10-22T05:15:38.894Z,10.40
2017-10-22T05:16:43.669Z,10.40
2017-10-22T05:17:47.832Z,10.40
2017-10-22T05:18:51.970Z,10.50
2017-10-22T05:19:56.125Z,10.40
2017-10-22T05:21:00.357Z,10.40
2017-10-22T05:22:04.586Z,10.40
2017-10-22T05:23:08.764Z,10.40
2017-10-22T05:24:12.933Z,10.40
2017-10-22T05:25:17.106Z,10.40
2017-10-22T05:26:21.318Z,10.40
2017-10-22T05:27:25.489Z,10.40
2017-10-22T05:28:29.691Z,10.30
2017-10-22T05:29:33.862Z,10.30
2017-10-22T05:30:38.055Z,10.30
2017-10-22T05:31:43.049Z,10.30
2017-10-22T05:32:47.273Z,10.30
2017-10-22T05:33:52.246Z,10.40
2017-10-22T05:34:56.393Z,10.30
2017-10-22T05:36:00.548Z,10.30
2017-10-22T05:37:04.747Z,10.30
2017-10-22T05:38:08.912Z,10.30
2017-10-22T05:39:13.939Z,10.30
2017-10-22T05:40:18.897Z,10.30
2017-10-22T05:41:23.183Z,10.30
2017-10-22T05:42:27.382Z,10.30
2017-10-22T05:43:31.577Z,10.30
2017-10-22T05:44:36.528Z,10.30
2017-10-22T05:45:40.686Z,10.30
2017-10-22T05:46:44.932Z,10.20
2017-10-22T05:47:49.097Z,10.30
2017-10-22T05:48:53.282Z,10.30
2017-10-22T05:49:57.427Z,10.30
2017-10-22T05:51:02.347Z,10.30
2017-10-22T05:52:07.329Z,10.30
2017-10-22T05:53:11.482Z,10.30
2017-10-22T05:54:15.931Z,10.30
2017-10-22T05:55:20.104Z,10.30
2017-10-22T05:56:24.263Z,10.30
2017-10-22T05:57:28.465Z,10.30
2017-10-22T05:58:32.655Z,10.30
2017-10-22T05:59:36.877Z,10.30
2017-10-22T06:00:41.108Z,10.30
2017-10-22T06:01:46.111Z,10.30
2017-10-22T06:02:51.137Z,10.30
2017-10-22T06:03:55.334Z,10.30
2017-10-22T06:04:59.582Z,10.30
2017-10-22T06:06:03.794Z,10.30
2017-10-22T06:07:08.055Z,10.30
2017-10-22T06:08:12.244Z,10.30
2017-10-22T06:09:16.657Z,10.30
2017-10-22T06:10:20.771Z,10.30
2017-10-22T06:11:25.144Z,10.40
2017-10-22T06:12:29.405Z,10.40
2017-10-22T06:13:34.514Z,10.40
2017-10-22T06:14:38.840Z,10.40
2017-10-22T06:15:43.989Z,10.40
2017-10-22T06:16:48.886Z,10.40
2017-10-22T06:17:54.267Z,10.40
2017-10-22T06:18:58.817Z,10.40
2017-10-22T06:20:03.917Z,10.40
2017-10-22T06:21:08.150Z,10.50
2017-10-22T06:22:12.548Z,10.50
2017-10-22T06:23:16.915Z,10.50
2017-10-22T06:24:21.232Z,10.50
2017-10-22T06:25:25.629Z,10.60
2017-10-22T06:26:29.851Z,10.60
2017-10-22T06:27:34.101Z,10.60
2017-10-22T06:28:39.074Z,10.60
2017-10-22T06:29:43.291Z,10.60
2017-10-22T06:30:47.517Z,10.70
2017-10-22T06:31:51.726Z,10.70
2017-10-22T06:32:56.037Z,10.70
2017-10-22T06:34:00.320Z,10.70
2017-10-22T06:35:04.849Z,10.70
2017-10-22T06:36:09.186Z,10.70
2017-10-22T06:37:14.306Z,10.70
2017-10-22T06:38:19.321Z,10.70
2017-10-22T06:39:24.398Z,10.80
2017-10-22T06:41:08.177Z,10.70
2017-10-22T06:42:13.268Z,10.70
2017-10-22T06:43:17.517Z,10.70
2017-10-22T06:44:22.638Z,10.80
2017-10-22T06:45:27.733Z,10.80
2017-10-22T06:46:32.091Z,10.70
2017-10-22T06:47:36.428Z,10.80
2017-10-22T06:48:40.742Z,10.80
2017-10-22T06:49:45.389Z,10.80
2017-10-22T06:50:49.621Z,10.90
2017-10-22T06:51:54.790Z,10.90
2017-10-22T06:52:59.106Z,10.80
2017-10-22T06:54:09.218Z,10.90
2017-10-22T06:55:15.147Z,10.90
2017-10-22T06:56:21.097Z,10.90
2017-10-22T06:57:27.009Z,10.90
2017-10-22T06:58:34.551Z,10.90
2017-10-22T06:59:40.731Z,10.90
2017-10-22T07:00:45.562Z,11.00
2017-10-22T07:01:50.056Z,11.00
2017-10-22T07:02:54.507Z,11.00
2017-10-22T07:03:59.723Z,11.00
2017-10-22T07:05:04.838Z,11.00
2017-10-22T07:06:09.607Z,11.00
2017-10-22T07:07:14.036Z,11.00
2017-10-22T07:08:18.386Z,11.00
2017-10-22T07:09:23.429Z,11.10
2017-10-22T07:10:27.802Z,11.00
2017-10-22T07:11:32.055Z,11.10
2017-10-22T07:12:37.245Z,11.00
2017-10-22T07:13:44.460Z,11.10
2017-10-22T07:14:49.984Z,11.10
2017-10-22T07:15:55.157Z,11.10
2017-10-22T07:17:00.427Z,11.20
2017-10-22T07:18:06.591Z,11.20
2017-10-22T07:19:12.540Z,11.20
2017-10-22T07:20:19.994Z,11.20
2017-10-22T07:21:24.559Z,11.20
2017-10-22T07:22:30.749Z,11.20
2017-10-22T07:23:35.744Z,11.20
2017-10-22T07:24:40.414Z,11.20
2017-10-22T07:25:47.330Z,11.20
2017-10-22T07:26:55.787Z,11.20
2017-10-22T07:28:01.739Z,11.20
2017-10-22T07:29:07.628Z,11.20
2017-10-22T07:30:12.953Z,11.20
2017-10-22T07:31:17.173Z,11.20
2017-10-22T07:32:21.398Z,11.20
2017-10-22T07:33:26.577Z,11.20
2017-10-22T07:34:30.941Z,11.20
2017-10-22T07:35:37.370Z,11.20
2017-10-22T07:36:41.638Z,11.20
2017-10-22T07:37:46.015Z,11.20
2017-10-22T07:38:51.067Z,11.20
2017-10-22T07:39:55.400Z,11.20
2017-10-22T07:40:59.972Z,11.20
2017-10-22T07:42:04.746Z,11.20
2017-10-22T07:43:08.997Z,11.20
2017-10-22T07:44:13.360Z,11.20
2017-10-22T07:45:17.617Z,11.30
2017-10-22T07:46:22.106Z,11.30
2017-10-22T07:47:27.231Z,11.30
2017-10-22T07:48:32.365Z,11.30
2017-10-22T07:49:37.611Z,11.30
2017-10-22T07:50:42.133Z,11.30
2017-10-22T07:51:46.628Z,11.40
2017-10-22T07:52:50.921Z,11.30
2017-10-22T07:53:55.880Z,11.30
2017-10-22T07:55:00.096Z,11.30
2017-10-22T07:56:04.339Z,11.30
2017-10-22T07:57:08.696Z,11.30
2017-10-22T07:58:12.969Z,11.30
2017-10-22T07:59:18.102Z,11.40
2017-10-22T08:00:23.170Z,11.40
2017-10-22T08:01:27.354Z,11.40
2017-10-22T08:02:31.587Z,11.40
2017-10-22T08:03:37.492Z,11.40
2017-10-22T08:04:41.721Z,11.40
2017-10-22T08:05:46.031Z,11.40
2017-10-22T08:06:50.282Z,11.40
2017-10-22T08:07:55.338Z,11.40
2017-10-22T08:08:59.607Z,11.40
2017-10-22T08:10:04.360Z,11.40
2017-10-22T08:11:08.755Z,11.40
2017-10-22T08:12:13.935Z,11.50
2017-10-22T08:13:18.270Z,11.40
2017-10-22T08:14:22.647Z,11.50
2017-10-22T08:15:26.965Z,11.50
2017-10-22T08:16:31.192Z,11.50
2017-10-22T08:17:36.263Z,11.50
2017-10-22T08:18:40.580Z,11.50
2017-10-22T08:19:44.932Z,11.50
2017-10-22T08:20:49.945Z,11.50
2017-10-22T08:21:54.359Z,11.50
2017-10-22T08:22:58.700Z,11.50
2017-10-22T08:24:03.697Z,11.60
2017-10-22T08:25:08.300Z,11.60
2017-10-22T08:26:12.534Z,11.60
2017-10-22T08:27:17.511Z,11.60
2017-10-22T08:28:21.787Z,11.60
2017-10-22T08:29:26.289Z,11.60
2017-10-22T08:30:31.055Z,11.60
2017-10-22T08:31:35.528Z,11.60
2017-10-22T08:32:42.222Z,11.60
2017-10-22T08:33:46.563Z,11.60
2017-10-22T08:34:50.990Z,11.60
2017-10-22T08:35:55.906Z,11.60
2017-10-22T08:37:01.066Z,11.60
2017-10-22T08:38:05.402Z,11.60
2017-10-22T08:39:09.667Z,11.60
2017-10-22T08:40:14.188Z,11.60
2017-10-22T08:41:19.049Z,11.60
2017-10-22T08:42:23.724Z,11.60
2017-10-22T08:43:28.165Z,11.60
2017-10-22T08:44:32.428Z,11.60
2017-10-22T08:45:37.286Z,11.70
2017-10-22T08:46:42.641Z,11.70
2017-10-22T08:47:47.417Z,11.70
2017-10-22T08:48:52.024Z,11.70
2017-10-22T08:49:57.133Z,11.70
2017-10-22T08:51:02.500Z,11.60
2017-10-22T08:52:07.188Z,11.70
2017-10-22T08:53:12.572Z,11.70
2017-10-22T08:54:17.730Z,11.70
2017-10-22T08:55:22.325Z,11.70
2017-10-22T08:56:26.781Z,11.70
2017-10-22T08:57:31.307Z,11.70
2017-10-22T08:58:35.794Z,11.70
2017-10-22T08:59:40.120Z,11.70
2017-10-22T09:00:45.828Z,11.70
2017-10-22T09:01:52.054Z,11.70
2017-10-22T09:02:57.039Z,11.70
2017-10-22T09:04:05.225Z,11.70
2017-10-22T09:05:10.398Z,11.70
2017-10-22T09:06:17.369Z,11.70
2017-10-22T09:07:24.684Z,11.70
2017-10-22T09:08:29.882Z,11.70
2017-10-22T09:09:34.690Z,11.70
2017-10-22T09:10:40.354Z,11.70
2017-10-22T09:11:45.390Z,11.70
2017-10-22T09:12:50.272Z,11.60
2017-10-22T09:13:56.236Z,11.60
2017-10-22T09:15:02.242Z,11.60
2017-10-22T09:16:07.176Z,11.60
2017-10-22T09:17:13.390Z,11.60
2017-10-22T09:18:18.354Z,11.70
2017-10-22T09:19:23.321Z,11.70
2017-10-22T09:20:27.706Z,11.70
2017-10-22T09:21:32.906Z,11.80
2017-10-22T09:22:37.333Z,11.70
2017-10-22T09:29:24.604Z,11.70
2017-10-22T09:30:30.258Z,11.80
2017-10-22T09:31:35.070Z,11.80
2017-10-22T09:32:39.972Z,11.90
2017-10-22T09:33:45.395Z,11.80
2017-10-22T09:34:50.441Z,11.80
2017-10-22T09:35:55.109Z,11.80
2017-10-22T09:36:59.767Z,11.80
2017-10-22T09:38:04.650Z,11.80
2017-10-22T09:39:08.976Z,11.80
2017-10-22T09:40:13.614Z,11.80
2017-10-22T09:41:18.836Z,11.90
2017-10-22T09:42:23.996Z,11.90
2017-10-22T09:43:28.339Z,11.90
2017-10-22T09:44:32.792Z,11.90
2017-10-22T09:45:37.501Z,11.80
2017-10-22T09:46:42.625Z,11.90
2017-10-22T09:47:47.764Z,11.90
2017-10-22T09:48:52.367Z,11.90
2017-10-22T09:49:57.763Z,11.90
2017-10-22T09:51:02.368Z,11.90
2017-10-22T09:52:06.914Z,11.90
2017-10-22T09:53:11.209Z,11.90
2017-10-22T09:54:16.359Z,11.80
2017-10-22T09:55:21.568Z,11.80
2017-10-22T09:56:26.156Z,11.70
2017-10-22T09:57:30.726Z,11.60
2017-10-22T09:58:35.939Z,11.40
2017-10-22T09:59:41.406Z,11.40
2017-10-22T10:00:45.971Z,11.40
2017-10-22T10:01:50.373Z,11.40
2017-10-22T10:02:54.703Z,11.50
2017-10-22T10:03:59.841Z,11.50
2017-10-22T10:05:04.199Z,11.40
2017-10-22T10:06:08.861Z,11.40
2017-10-22T10:07:15.340Z,11.40
2017-10-22T10:08:19.952Z,11.40
2017-10-22T10:09:24.322Z,11.40
2017-10-22T10:10:29.377Z,11.40
2017-10-22T10:11:33.718Z,11.40
2017-10-22T10:12:38.138Z,11.40
2017-10-22T10:13:42.553Z,11.40
2017-10-22T10:14:46.921Z,11.50
2017-10-22T10:15:51.226Z,11.50
2017-10-22T10:16:55.575Z,11.40
2017-10-22T10:17:59.926Z,11.40
2017-10-22T10:19:05.217Z,11.40
2017-10-22T10:20:09.757Z,11.40
2017-10-22T10:21:14.863Z,11.50
2017-10-22T10:22:19.276Z,11.50
2017-10-22T10:23:23.637Z,11.50
2017-10-22T10:24:28.121Z,11.50
2017-10-22T10:25:33.364Z,11.60
2017-10-22T10:26:38.205Z,11.60
2017-10-22T10:27:43.591Z,11.50
2017-10-22T10:28:48.249Z,11.50
2017-10-22T10:29:52.591Z,11.50
2017-10-22T10:30:56.991Z,11.50
2017-10-22T10:32:01.542Z,11.50
2017-10-22T10:33:06.660Z,11.40
2017-10-22T10:34:11.878Z,11.30
2017-10-22T10:35:17.921Z,11.30
2017-10-22T10:36:22.238Z,11.30
2017-10-22T10:37:26.687Z,11.30
2017-10-22T10:38:32.430Z,11.30
2017-10-22T10:39:36.797Z,11.30
2017-10-22T10:40:41.257Z,11.30
2017-10-22T10:41:45.793Z,11.30
2017-10-22T10:42:50.350Z,11.20
2017-10-22T10:43:58.190Z,11.20
2017-10-22T10:45:03.121Z,11.20
2017-10-22T10:46:08.265Z,11.30
2017-10-22T10:47:15.921Z,11.30
2017-10-22T10:48:21.321Z,11.30
2017-10-22T10:49:28.795Z,11.30
2017-10-22T10:50:33.987Z,11.30
2017-10-22T10:51:38.369Z,11.40
2017-10-22T10:52:43.947Z,11.40
2017-10-22T10:53:49.523Z,11.40
2017-10-22T10:54:55.507Z,11.40
2017-10-22T10:56:02.950Z,11.30
2017-10-22T10:57:08.821Z,11.30
2017-10-22T10:58:15.345Z,11.20
2017-10-22T10:59:21.843Z,11.20
2017-10-22T11:00:26.983Z,11.20
2017-10-22T11:01:31.375Z,11.20
2017-10-22T11:02:36.569Z,11.30
2017-10-22T11:03:43.739Z,11.30
2017-10-22T11:04:48.933Z,11.10
2017-10-22T11:05:54.056Z,11.20
2017-10-22T11:07:04.557Z,11.20
2017-10-22T11:08:09.927Z,11.20
2017-10-22T11:09:14.835Z,11.30
2017-10-22T11:10:19.138Z,11.30
2017-10-22T11:11:23.646Z,11.30
2017-10-22T11:12:28.324Z,11.30
2017-10-22T11:13:33.657Z,11.20
2017-10-22T11:14:38.043Z,11.20
2017-10-22T11:15:42.360Z,11.20
2017-10-22T11:16:47.589Z,11.20
2017-10-22T11:17:53.939Z,11.20
2017-10-22T11:18:59.870Z,11.20
2017-10-22T11:20:05.013Z,11.20
2017-10-22T11:21:12.987Z,11.30
2017-10-22T11:22:18.916Z,11.30
2017-10-22T11:23:24.289Z,11.30
2017-10-22T11:24:30.089Z,11.30
2017-10-22T11:25:36.071Z,11.30
2017-10-22T11:26:42.137Z,11.40
2017-10-22T11:27:49.513Z,11.40
2017-10-22T11:28:55.236Z,11.40
2017-10-22T11:30:00.276Z,11.40
2017-10-22T11:31:06.882Z,11.40
2017-10-22T11:32:11.290Z,11.30
2017-10-22T11:33:15.781Z,11.40
2017-10-22T11:34:20.115Z,11.30
2017-10-22T11:35:24.327Z,11.30
2017-10-22T11:36:28.631Z,11.30
2017-10-22T11:37:32.886Z,11.30
2017-10-22T11:38:37.999Z,11.40
2017-10-22T11:39:43.111Z,11.40
2017-10-22T11:40:47.417Z,11.40
2017-10-22T11:41:51.934Z,11.50
2017-10-22T11:42:56.485Z,11.50
2017-10-22T11:44:00.974Z,11.50
2017-10-22T11:45:08.605Z,11.60
2017-10-22T11:46:13.364Z,11.50
2017-10-22T11:47:18.523Z,11.60
2017-10-22T11:48:23.337Z,11.50
2017-10-22T11:49:27.965Z,11.50
2017-10-22T11:50:32.703Z,11.60
2017-10-22T11:51:37.214Z,11.50
2017-10-22T11:52:41.522Z,11.50
2017-10-22T11:53:45.818Z,11.50
2017-10-22T11:54:50.451Z,11.50
2017-10-22T11:55:56.674Z,11.50
2017-10-22T11:57:01.090Z,11.50
2017-10-22T11:58:05.470Z,11.50
2017-10-22T11:59:10.557Z,11.60
2017-10-22T12:00:15.114Z,11.50
2017-10-22T12:01:20.364Z,11.60
2017-10-22T12:02:24.696Z,11.60
2017-10-22T12:03:29.035Z,11.70
2017-10-22T12:04:33.335Z,11.70
2017-10-22T12:05:38.144Z,11.70
2017-10-22T12:06:42.477Z,11.70
2017-10-22T12:07:47.604Z,11.70
2017-10-22T12:08:52.587Z,11.70
2017-10-22T12:09:56.965Z,11.70
2017-10-22T12:11:01.547Z,11.70
2017-10-22T12:12:06.685Z,11.80
2017-10-22T12:13:11.950Z,11.80
2017-10-22T12:14:16.317Z,11.80
2017-10-22T12:15:21.562Z,11.90
2017-10-22T12:16:26.147Z,11.90
2017-10-22T12:17:31.343Z,11.90
2017-10-22T12:18:35.766Z,11.90
2017-10-22T12:19:40.083Z,11.90
2017-10-22T12:20:44.574Z,12.00
2017-10-22T12:21:49.444Z,12.00
2017-10-22T12:22:54.477Z,12.00
2017-10-22T12:23:58.813Z,12.00
2017-10-22T12:25:03.406Z,12.00
2017-10-22T12:26:09.222Z,12.10
2017-10-22T12:27:14.903Z,12.10
2017-10-22T12:28:19.229Z,12.10
2017-10-22T12:29:23.714Z,12.10
2017-10-22T12:30:28.091Z,12.10
2017-10-22T12:31:32.440Z,12.10
2017-10-22T12:32:37.007Z,12.10
2017-10-22T12:33:42.086Z,12.20
2017-10-22T12:34:47.062Z,12.20
2017-10-22T12:35:52.961Z,12.40
2017-10-22T12:36:57.395Z,12.40
2017-10-22T12:38:01.973Z,12.50
2017-10-22T12:39:07.274Z,12.50
2017-10-22T12:40:11.616Z,12.60
2017-10-22T12:41:16.099Z,12.50
2017-10-22T12:42:20.606Z,12.50
2017-10-22T12:43:25.043Z,12.60
2017-10-22T12:44:29.318Z,12.60
2017-10-22T12:45:33.605Z,12.60
2017-10-22T12:46:38.932Z,12.60
2017-10-22T12:47:43.418Z,12.60
2017-10-22T12:48:49.813Z,12.70
2017-10-22T12:49:55.018Z,12.70
2017-10-22T12:50:59.330Z,12.70
2017-10-22T12:52:03.787Z,12.70
2017-10-22T12:53:08.076Z,12.80
2017-10-22T12:54:12.477Z,12.60
2017-10-22T12:55:17.798Z,12.60
2017-10-22T12:56:22.148Z,12.60
2017-10-22T12:57:26.437Z,12.70
2017-10-22T12:58:30.984Z,12.80
2017-10-22T12:59:36.604Z,12.80
2017-10-22T13:00:40.915Z,12.90
2017-10-22T13:01:45.433Z,12.90
2017-10-22T13:02:49.765Z,12.90
2017-10-22T13:03:54.151Z,13.00
2017-10-22T13:04:58.690Z,13.10
2017-10-22T13:06:04.233Z,13.20
2017-10-22T13:07:08.637Z,13.20
2017-10-22T13:08:13.711Z,13.20
2017-10-22T13:09:17.975Z,13.10
2017-10-22T13:10:23.466Z,13.20
2017-10-22T13:11:29.612Z,13.20
2017-10-22T13:12:34.171Z,13.20
2017-10-22T13:13:38.690Z,13.10
2017-10-22T13:14:43.063Z,12.90
2017-10-22T13:15:47.545Z,12.80
2017-10-22T13:16:51.999Z,12.60
2017-10-22T13:17:56.409Z,12.60
2017-10-22T13:19:00.796Z,12.60
2017-10-22T13:20:05.268Z,12.60
2017-10-22T13:21:09.837Z,12.70
2017-10-22T13:22:14.769Z,12.70
2017-10-22T13:23:19.168Z,12.70
2017-10-22T13:25:42.855Z,12.70
2017-10-22T13:26:47.978Z,12.70
2017-10-22T13:27:52.401Z,12.70
2017-10-22T13:28:57.752Z,12.80
2017-10-22T13:30:02.912Z,12.80
2017-10-22T13:31:07.248Z,12.80
2017-10-22T13:32:12.330Z,12.80
2017-10-22T13:33:16.777Z,12.80
2017-10-22T13:34:21.364Z,12.80
2017-10-22T13:35:26.676Z,12.80
2017-10-22T13:36:31.284Z,12.80
2017-10-22T13:37:35.897Z,12.90
2017-10-22T13:38:41.023Z,12.80
2017-10-22T13:39:45.738Z,12.90
2017-10-22T13:40:50.951Z,12.90
2017-10-22T13:41:55.349Z,12.90
2017-10-22T13:42:59.743Z,12.80
2017-10-22T13:44:04.193Z,12.80
2017-10-22T13:45:09.399Z,12.80
2017-10-22T13:46:13.778Z,12.80
2017-10-22T13:47:18.903Z,12.80
2017-10-22T13:48:23.472Z,12.80
2017-10-22T13:49:28.682Z,12.80
2017-10-22T13:50:33.431Z,12.80
2017-10-22T13:51:37.790Z,12.80
2017-10-22T13:52:42.128Z,12.60
2017-10-22T13:53:48.223Z,12.60
2017-10-22T13:54:52.786Z,12.60
2017-10-22T13:55:58.141Z,12.50
2017-10-22T13:57:02.513Z,12.50
2017-10-22T13:58:06.940Z,12.50
2017-10-22T13:59:11.346Z,12.50
2017-10-22T14:00:16.442Z,12.40
2017-10-22T14:01:21.577Z,12.40